Time;durP1;ratioP1;P1;durP2;ratioP2;P2;SDS_P1;SDS_P2;PMS_P1;PMS_P2;Temp;Humidity;BMP_temperature;BMP_pressure;BME280_temperature;BME280_humidity;BME280_pressure;Samples;Min_cycle;Max_cycle;Signal;HPM_P1;HPM_P2
2023/01/01 00:00:54;;;;;;;;;;;15.90;99.90;;;;;;5006077;28;20280;-80
2023/01/01 00:03:20;;;;;;;;;;;15.90;99.90;;;;;;5007407;28;19917;-80
2023/01/01 00:05:45;;;;;;;;;;;15.90;99.90;;;;;;5011014;28;19908;-82
2023/01/01 00:08:10;;;;;;;;;;;15.80;99.90;;;;;;5015407;28;19913;-77
2023/01/01 00:10:36;;;;;;;;;;;15.80;99.90;;;;;;5016334;28;19924;-74
2023/01/01 00:13:01;;;;;;;;;;;15.80;99.90;;;;;;5016547;28;19920;-77
2023/01/01 00:15:27;;;;;;;;;;;15.80;99.90;;;;;;5017269;28;19919;-79
2023/01/01 00:17:53;;;;;;;;;;;15.90;99.90;;;;;;5019552;28;19920;-84
2023/01/01 00:20:19;;;;;;;;;;;15.90;99.90;;;;;;5018925;28;20100;-81
2023/01/01 00:22:44;;;;;;;;;;;15.80;99.90;;;;;;5009310;28;20383;-86
2023/01/01 00:25:12;;;;;;;;;;;15.90;99.90;;;;;;5024811;28;20367;-79
2023/01/01 00:27:38;;;;;;;;;;;15.90;99.90;;;;;;5020479;28;19924;-88
2023/01/01 00:30:04;;;;;;;;;;;15.90;99.90;;;;;;5016492;28;20359;-86
2023/01/01 00:32:29;;;;;;;;;;;16.00;99.90;;;;;;5012674;28;19959;-86
2023/01/01 00:34:55;;;;;;;;;;;15.90;99.90;;;;;;5026075;28;19913;-87
2023/01/01 00:37:20;;;;;;;;;;;15.90;99.90;;;;;;5020463;28;19936;-80
2023/01/01 00:42:03;;;;;;;;;;;15.90;99.90;;;;;;5120203;27;19989;-80
2023/01/01 00:44:28;;;;;;;;;;;16.00;99.90;;;;;;5117231;27;19932;-81
2023/01/01 00:46:54;;;;;;;;;;;16.00;99.90;;;;;;5116490;27;20046;-80
2023/01/01 00:49:19;;;;;;;;;;;15.90;99.90;;;;;;5117193;27;20293;-82
2023/01/01 00:51:45;;;;;;;;;;;15.90;99.90;;;;;;5114516;27;19915;-82
2023/01/01 00:54:10;;;;;;;;;;;15.80;99.90;;;;;;5117527;27;19912;-85
2023/01/01 00:56:36;;;;;;;;;;;15.90;99.90;;;;;;5120545;27;19969;-78
2023/01/01 00:59:01;;;;;;;;;;;15.90;99.90;;;;;;5122067;27;19916;-80
2023/01/01 01:01:26;;;;;;;;;;;16.00;99.90;;;;;;5115877;27;19981;-78
2023/01/01 01:03:52;;;;;;;;;;;16.00;99.90;;;;;;5114567;27;20287;-76
2023/01/01 01:06:17;;;;;;;;;;;16.00;99.90;;;;;;5112141;27;19916;-77
2023/01/01 01:08:44;;;;;;;;;;;16.00;99.90;;;;;;5114131;27;19915;-75
2023/01/01 01:11:13;;;;;;;;;;;16.00;99.90;;;;;;5114427;27;20360;-78
2023/01/01 01:13:39;;;;;;;;;;;16.00;99.90;;;;;;5112872;27;19916;-77
2023/01/01 01:16:27;;;;;;;;;;;16.00;99.90;;;;;;5114382;27;19916;-80
2023/01/01 01:18:54;;;;;;;;;;;16.00;99.90;;;;;;5107388;27;19915;-79
2023/01/01 01:21:20;;;;;;;;;;;15.90;99.90;;;;;;5106164;27;19920;-78
2023/01/01 01:23:47;;;;;;;;;;;15.90;99.90;;;;;;5100302;27;19916;-77
2023/01/01 01:26:14;;;;;;;;;;;15.90;99.90;;;;;;5103366;27;20430;-80
2023/01/01 01:28:39;;;;;;;;;;;15.90;99.90;;;;;;5102573;27;20459;-79
2023/01/01 01:31:05;;;;;;;;;;;15.90;99.90;;;;;;5110943;27;20468;-84
2023/01/01 01:33:30;;;;;;;;;;;15.90;99.90;;;;;;5108129;27;19915;-78
2023/01/01 01:35:56;;;;;;;;;;;15.90;99.90;;;;;;5112447;27;20284;-77
2023/01/01 01:38:21;;;;;;;;;;;15.90;99.90;;;;;;5100003;27;19920;-77
2023/01/01 01:40:47;;;;;;;;;;;15.80;99.90;;;;;;5109050;27;20911;-77
2023/01/01 01:43:23;;;;;;;;;;;15.80;99.90;;;;;;5111204;27;19939;-79
2023/01/01 01:45:51;;;;;;;;;;;15.80;99.90;;;;;;5110154;27;20011;-80
2023/01/01 01:48:17;;;;;;;;;;;15.80;99.90;;;;;;5114805;27;20198;-80
2023/01/01 01:50:44;;;;;;;;;;;15.80;99.90;;;;;;5115659;27;19955;-82
2023/01/01 01:53:11;;;;;;;;;;;15.80;99.90;;;;;;5087501;27;20310;-77
2023/01/01 01:55:45;;;;;;;;;;;15.80;99.90;;;;;;5083348;27;20011;-80
2023/01/01 01:58:12;;;;;;;;;;;15.80;99.90;;;;;;5098143;27;19916;-83
2023/01/01 02:00:37;;;;;;;;;;;15.80;99.90;;;;;;5098189;27;19988;-84
2023/01/01 02:03:06;;;;;;;;;;;15.80;99.90;;;;;;5099771;28;20342;-78
2023/01/01 02:05:32;;;;;;;;;;;15.80;99.80;;;;;;5098232;28;19919;-77
2023/01/01 02:07:58;;;;;;;;;;;15.80;99.80;;;;;;5099768;28;19916;-78
2023/01/01 02:10:25;;;;;;;;;;;15.80;99.70;;;;;;5098526;27;19916;-82
2023/01/01 02:12:50;;;;;;;;;;;15.80;99.80;;;;;;5090777;27;20479;-81
2023/01/01 02:15:16;;;;;;;;;;;15.80;99.60;;;;;;5086320;28;20041;-76
2023/01/01 02:17:50;;;;;;;;;;;15.90;99.50;;;;;;5084514;28;19912;-80
2023/01/01 02:20:34;;;;;;;;;;;15.90;99.50;;;;;;5085404;27;20339;-80
2023/01/01 02:23:14;;;;;;;;;;;15.90;99.50;;;;;;5082358;27;19966;-80
2023/01/01 02:25:39;;;;;;;;;;;15.90;99.40;;;;;;5081401;28;19916;-79
2023/01/01 02:28:12;;;;;;;;;;;15.90;99.30;;;;;;5087813;27;19919;-79
2023/01/01 02:30:38;;;;;;;;;;;15.90;99.30;;;;;;5083428;28;19931;-79
2023/01/01 02:33:08;;;;;;;;;;;15.90;99.30;;;;;;5082321;28;19912;-79
2023/01/01 02:35:37;;;;;;;;;;;15.80;99.30;;;;;;5090508;27;19955;-79
2023/01/01 02:38:02;;;;;;;;;;;15.80;99.30;;;;;;5099198;27;19908;-87
2023/01/01 02:40:28;;;;;;;;;;;15.70;99.40;;;;;;5098999;28;19947;-79
2023/01/01 02:42:54;;;;;;;;;;;15.70;99.30;;;;;;5092348;28;20268;-79
2023/01/01 02:45:20;;;;;;;;;;;15.70;99.20;;;;;;5086340;27;20386;-78
2023/01/01 02:47:45;;;;;;;;;;;15.80;99.10;;;;;;5090529;28;20293;-83
2023/01/01 02:50:13;;;;;;;;;;;15.80;99.20;;;;;;5087171;27;20501;-76
2023/01/01 02:52:51;;;;;;;;;;;15.70;99.10;;;;;;5083939;28;19916;-77
2023/01/01 02:55:42;;;;;;;;;;;15.70;99.00;;;;;;5085682;27;20367;-78
2023/01/01 03:01:04;;;;;;;;;;;15.70;99.10;;;;;;5089009;28;20325;-78
2023/01/01 03:03:35;;;;;;;;;;;15.60;99.20;;;;;;5100775;27;19939;-78
2023/01/01 03:06:24;;;;;;;;;;;15.60;99.40;;;;;;5088058;27;19916;-70
2023/01/01 03:09:09;;;;;;;;;;;15.50;99.70;;;;;;5085299;28;19920;-65
2023/01/01 03:11:47;;;;;;;;;;;15.60;99.70;;;;;;5080850;27;19916;-65
2023/01/01 03:14:17;;;;;;;;;;;15.70;99.60;;;;;;5087164;27;20388;-64
2023/01/01 03:16:46;;;;;;;;;;;15.70;99.40;;;;;;5084225;28;19957;-61
2023/01/01 03:19:15;;;;;;;;;;;15.70;99.50;;;;;;5083833;28;19915;-61
2023/01/01 03:21:54;;;;;;;;;;;15.70;99.50;;;;;;5089526;27;19919;-63
2023/01/01 03:24:31;;;;;;;;;;;15.60;99.60;;;;;;5088235;28;19923;-64
2023/01/01 03:26:58;;;;;;;;;;;15.70;99.50;;;;;;5087365;27;19915;-64
2023/01/01 03:29:25;;;;;;;;;;;15.70;99.50;;;;;;5086884;28;19938;-63
2023/01/01 03:31:52;;;;;;;;;;;15.70;99.60;;;;;;5090421;28;19958;-65
2023/01/01 03:34:21;;;;;;;;;;;15.70;99.60;;;;;;5097279;27;19915;-65
2023/01/01 03:36:49;;;;;;;;;;;15.70;99.60;;;;;;5093195;28;19922;-65
2023/01/01 03:39:20;;;;;;;;;;;15.70;99.60;;;;;;5095813;27;19916;-64
2023/01/01 03:41:48;;;;;;;;;;;15.70;99.60;;;;;;5097312;27;19988;-64
2023/01/01 03:44:17;;;;;;;;;;;15.60;99.50;;;;;;5097222;28;19922;-65
2023/01/01 03:46:43;;;;;;;;;;;15.60;99.60;;;;;;5097243;28;20033;-63
2023/01/01 03:49:09;;;;;;;;;;;15.60;99.60;;;;;;5097233;27;20343;-63
2023/01/01 03:51:54;;;;;;;;;;;15.60;99.50;;;;;;5097232;28;19915;-63
2023/01/01 03:54:38;;;;;;;;;;;15.60;99.50;;;;;;5097156;28;19931;-64
2023/01/01 03:57:09;;;;;;;;;;;15.60;99.50;;;;;;5096600;27;20048;-64
2023/01/01 03:59:59;;;;;;;;;;;15.60;99.40;;;;;;5097528;27;20379;-64
2023/01/01 04:02:27;;;;;;;;;;;15.60;99.50;;;;;;5097112;28;19920;-65
2023/01/01 04:04:53;;;;;;;;;;;15.60;99.50;;;;;;5098604;27;19948;-65
2023/01/01 04:07:19;;;;;;;;;;;15.50;99.60;;;;;;5095462;27;20346;-66
2023/01/01 04:09:53;;;;;;;;;;;15.50;99.70;;;;;;5095771;27;19972;-67
2023/01/01 04:12:19;;;;;;;;;;;15.40;99.60;;;;;;5089279;27;19915;-66
2023/01/01 04:14:45;;;;;;;;;;;15.40;99.60;;;;;;5096141;28;20327;-65
2023/01/01 04:17:11;;;;;;;;;;;15.40;99.80;;;;;;5096873;28;19951;-66
2023/01/01 04:19:36;;;;;;;;;;;15.50;99.70;;;;;;5085283;27;19912;-64
2023/01/01 04:22:02;;;;;;;;;;;15.50;99.60;;;;;;5086915;28;19920;-66
2023/01/01 04:24:27;;;;;;;;;;;15.50;99.60;;;;;;5087091;28;19984;-66
2023/01/01 04:26:53;;;;;;;;;;;15.50;99.40;;;;;;5087066;28;19912;-66
2023/01/01 04:29:19;;;;;;;;;;;15.50;99.20;;;;;;5086964;28;19930;-66
2023/01/01 04:31:45;;;;;;;;;;;15.50;99.30;;;;;;5086544;28;19916;-64
2023/01/01 04:34:10;;;;;;;;;;;15.50;99.30;;;;;;5084928;28;20090;-65
2023/01/01 04:36:36;;;;;;;;;;;15.50;99.40;;;;;;5097106;27;19912;-65
2023/01/01 04:39:02;;;;;;;;;;;15.40;99.50;;;;;;5096604;28;19923;-64
2023/01/01 04:41:27;;;;;;;;;;;15.40;99.40;;;;;;5096360;28;19939;-65
2023/01/01 04:43:53;;;;;;;;;;;15.40;99.40;;;;;;5095982;28;20429;-66
2023/01/01 04:46:19;;;;;;;;;;;15.40;99.40;;;;;;5094665;28;19985;-65
2023/01/01 04:48:45;;;;;;;;;;;15.40;99.40;;;;;;5096636;28;20004;-67
2023/01/01 04:51:11;;;;;;;;;;;15.40;99.50;;;;;;5096515;28;20361;-65
2023/01/01 04:53:37;;;;;;;;;;;15.30;99.50;;;;;;5096533;28;19912;-66
2023/01/01 04:56:04;;;;;;;;;;;15.30;99.50;;;;;;5095887;28;19916;-67
2023/01/01 04:58:29;;;;;;;;;;;15.30;99.50;;;;;;5096511;28;19916;-66
2023/01/01 05:00:55;;;;;;;;;;;15.30;99.40;;;;;;5093503;27;19972;-63
2023/01/01 05:03:20;;;;;;;;;;;15.30;99.50;;;;;;5087952;28;19923;-63
2023/01/01 05:05:47;;;;;;;;;;;15.30;99.50;;;;;;5092829;27;19954;-64
2023/01/01 05:08:13;;;;;;;;;;;15.30;99.50;;;;;;5088178;28;19977;-63
2023/01/01 05:10:38;;;;;;;;;;;15.20;99.50;;;;;;5086519;28;19920;-64
2023/01/01 05:13:07;;;;;;;;;;;15.20;99.70;;;;;;5084133;28;20641;-64
2023/01/01 05:15:34;;;;;;;;;;;15.20;99.60;;;;;;5082627;28;19916;-64
2023/01/01 05:17:59;;;;;;;;;;;15.20;99.70;;;;;;5086125;28;19957;-65
2023/01/01 05:20:25;;;;;;;;;;;15.20;99.60;;;;;;5088821;28;20591;-64
2023/01/01 05:22:50;;;;;;;;;;;15.20;99.70;;;;;;5094712;28;19916;-65
2023/01/01 05:25:15;;;;;;;;;;;15.10;99.60;;;;;;5089307;28;19916;-66
2023/01/01 05:27:41;;;;;;;;;;;15.10;99.90;;;;;;5088856;27;19916;-66
2023/01/01 05:30:07;;;;;;;;;;;15.10;99.70;;;;;;5100053;28;19916;-65
2023/01/01 05:32:32;;;;;;;;;;;15.20;99.60;;;;;;5099922;27;19929;-66
2023/01/01 05:34:57;;;;;;;;;;;15.20;99.60;;;;;;5100142;27;19915;-66
2023/01/01 05:37:23;;;;;;;;;;;15.20;99.60;;;;;;5097968;27;19947;-66
2023/01/01 05:39:48;;;;;;;;;;;15.20;99.60;;;;;;5099740;27;19919;-67
2023/01/01 05:42:14;;;;;;;;;;;15.20;99.60;;;;;;5099873;28;20363;-67
2023/01/01 05:44:39;;;;;;;;;;;15.20;99.60;;;;;;5099347;27;20297;-66
2023/01/01 05:47:05;;;;;;;;;;;15.30;99.60;;;;;;5090085;28;19912;-66
2023/01/01 05:49:30;;;;;;;;;;;15.30;99.60;;;;;;5091011;27;19916;-66
2023/01/01 05:51:56;;;;;;;;;;;15.20;99.70;;;;;;5087351;27;19916;-66
2023/01/01 05:54:21;;;;;;;;;;;15.20;99.60;;;;;;5089245;27;20373;-66
2023/01/01 05:56:47;;;;;;;;;;;15.20;99.70;;;;;;5088270;28;19964;-66
2023/01/01 05:59:12;;;;;;;;;;;15.20;99.90;;;;;;5088674;27;19923;-67
2023/01/01 06:01:37;;;;;;;;;;;15.10;99.80;;;;;;5088712;28;20259;-66
2023/01/01 06:04:03;;;;;;;;;;;15.10;99.90;;;;;;5088779;27;19916;-66
2023/01/01 06:06:29;;;;;;;;;;;15.10;99.90;;;;;;5088844;28;19916;-66
2023/01/01 06:08:56;;;;;;;;;;;15.10;99.90;;;;;;5087386;28;20391;-67
2023/01/01 06:11:22;;;;;;;;;;;15.10;99.80;;;;;;5089477;27;19989;-65
2023/01/01 06:13:50;;;;;;;;;;;15.10;99.90;;;;;;5089194;27;19923;-65
2023/01/01 06:16:15;;;;;;;;;;;15.10;99.70;;;;;;5089447;28;19915;-65
2023/01/01 06:18:40;;;;;;;;;;;15.20;99.70;;;;;;5089377;28;19923;-65
2023/01/01 06:21:07;;;;;;;;;;;15.20;99.70;;;;;;5088760;27;19960;-65
2023/01/01 06:23:33;;;;;;;;;;;15.20;99.80;;;;;;5088935;28;20018;-65
2023/01/01 06:26:06;;;;;;;;;;;15.10;99.80;;;;;;5088387;27;20003;-65
2023/01/01 06:28:31;;;;;;;;;;;15.10;99.70;;;;;;5088438;28;19916;-66
2023/01/01 06:31:00;;;;;;;;;;;15.20;99.90;;;;;;5086818;28;19916;-65
2023/01/01 06:33:25;;;;;;;;;;;15.10;99.70;;;;;;5089417;28;19923;-65
2023/01/01 06:35:51;;;;;;;;;;;15.10;99.90;;;;;;5088954;27;19916;-65
2023/01/01 06:38:16;;;;;;;;;;;15.10;99.90;;;;;;5087894;28;19936;-65
2023/01/01 06:40:42;;;;;;;;;;;15.00;99.90;;;;;;5092946;27;20018;-65
2023/01/01 06:43:07;;;;;;;;;;;15.00;99.90;;;;;;5098401;28;19916;-65
2023/01/01 06:45:32;;;;;;;;;;;15.00;99.90;;;;;;5096813;28;20006;-65
2023/01/01 06:47:58;;;;;;;;;;;15.00;99.90;;;;;;5098524;28;19916;-65
2023/01/01 06:50:23;;;;;;;;;;;15.00;99.90;;;;;;5087476;28;19930;-66
2023/01/01 06:52:49;;;;;;;;;;;15.00;99.90;;;;;;5093195;27;19927;-66
2023/01/01 06:55:14;;;;;;;;;;;15.00;99.90;;;;;;5098840;28;19968;-66
2023/01/01 06:57:39;;;;;;;;;;;15.00;99.90;;;;;;5098794;28;20434;-66
2023/01/01 07:00:05;;;;;;;;;;;14.90;99.90;;;;;;5097210;27;19916;-64
2023/01/01 07:02:31;;;;;;;;;;;14.90;99.90;;;;;;5098208;28;19922;-66
2023/01/01 07:04:56;;;;;;;;;;;14.80;99.90;;;;;;5094545;28;20002;-66
2023/01/01 07:07:21;;;;;;;;;;;14.90;99.90;;;;;;5087570;28;20024;-66
2023/01/01 07:09:47;;;;;;;;;;;14.90;99.90;;;;;;5088597;27;20545;-66
2023/01/01 07:12:12;;;;;;;;;;;14.90;99.90;;;;;;5085990;28;20461;-66
2023/01/01 07:14:38;;;;;;;;;;;14.90;99.90;;;;;;5088887;28;19927;-66
2023/01/01 07:17:03;;;;;;;;;;;14.90;99.90;;;;;;5086740;27;20006;-66
2023/01/01 07:19:29;;;;;;;;;;;14.80;99.90;;;;;;5087865;27;19916;-64
2023/01/01 07:21:54;;;;;;;;;;;14.80;99.90;;;;;;5093552;28;20289;-65
2023/01/01 07:24:20;;;;;;;;;;;14.90;99.90;;;;;;5098414;28;19954;-66
2023/01/01 07:26:46;;;;;;;;;;;14.90;99.90;;;;;;5097084;28;20315;-67
2023/01/01 07:29:11;;;;;;;;;;;14.90;99.90;;;;;;5097873;28;19916;-63
2023/01/01 07:31:38;;;;;;;;;;;14.90;99.90;;;;;;5095787;28;19945;-63
2023/01/01 07:34:04;;;;;;;;;;;14.90;99.90;;;;;;5097793;28;19923;-64
2023/01/01 07:36:30;;;;;;;;;;;15.00;99.90;;;;;;5098307;28;19962;-63
2023/01/01 07:38:55;;;;;;;;;;;15.10;99.90;;;;;;5097608;27;20066;-64
2023/01/01 07:41:20;;;;;;;;;;;15.00;99.90;;;;;;5096074;28;20425;-62
2023/01/01 07:43:46;;;;;;;;;;;15.00;99.90;;;;;;5086851;27;19916;-64
2023/01/01 07:46:12;;;;;;;;;;;15.00;99.90;;;;;;5089828;28;19970;-65
2023/01/01 07:48:37;;;;;;;;;;;15.00;99.90;;;;;;5097695;28;19919;-64
2023/01/01 07:51:03;;;;;;;;;;;15.00;99.90;;;;;;5096729;28;19922;-63
2023/01/01 07:53:28;;;;;;;;;;;15.00;99.90;;;;;;5097608;28;19912;-64
2023/01/01 07:55:54;;;;;;;;;;;15.00;99.90;;;;;;5095593;27;19915;-66
2023/01/01 07:58:19;;;;;;;;;;;15.00;99.90;;;;;;5097561;28;19959;-65
2023/01/01 08:00:46;;;;;;;;;;;15.00;99.90;;;;;;5097381;28;19923;-65
2023/01/01 08:03:11;;;;;;;;;;;15.00;99.90;;;;;;5097232;27;19975;-67
2023/01/01 08:05:37;;;;;;;;;;;15.00;99.90;;;;;;5096853;28;19969;-65
2023/01/01 08:08:02;;;;;;;;;;;15.00;99.90;;;;;;5087090;28;19919;-65
2023/01/01 08:10:28;;;;;;;;;;;15.00;99.90;;;;;;5085557;28;19957;-65
2023/01/01 08:12:57;;;;;;;;;;;15.10;99.90;;;;;;5086944;28;19912;-65
2023/01/01 08:15:23;;;;;;;;;;;15.10;99.90;;;;;;5094431;27;19969;-65
2023/01/01 08:17:48;;;;;;;;;;;15.10;99.90;;;;;;5088549;28;20305;-65
2023/01/01 08:20:14;;;;;;;;;;;15.10;99.90;;;;;;5096000;28;19916;-65
2023/01/01 08:22:39;;;;;;;;;;;15.10;99.90;;;;;;5080829;28;19917;-65
2023/01/01 08:25:05;;;;;;;;;;;15.10;99.90;;;;;;5087030;28;19916;-65
2023/01/01 08:27:30;;;;;;;;;;;15.10;99.90;;;;;;5086887;28;19916;-65
2023/01/01 08:29:55;;;;;;;;;;;15.10;99.90;;;;;;5097053;28;19920;-66
2023/01/01 08:32:21;;;;;;;;;;;15.20;99.90;;;;;;5091328;28;19978;-66
2023/01/01 08:34:46;;;;;;;;;;;15.20;99.90;;;;;;5090303;28;20006;-64
2023/01/01 08:37:12;;;;;;;;;;;15.20;99.90;;;;;;5096529;27;20350;-66
2023/01/01 08:39:38;;;;;;;;;;;15.20;99.90;;;;;;5096881;28;20301;-64
2023/01/01 08:42:03;;;;;;;;;;;15.20;99.90;;;;;;5096701;27;19919;-65
2023/01/01 08:44:29;;;;;;;;;;;15.20;99.90;;;;;;5096719;28;20255;-65
2023/01/01 08:46:54;;;;;;;;;;;15.30;99.90;;;;;;5100747;27;20371;-65
2023/01/01 08:49:19;;;;;;;;;;;15.30;99.90;;;;;;5090366;27;20420;-64
2023/01/01 08:51:45;;;;;;;;;;;15.30;99.90;;;;;;5096748;28;19911;-65
2023/01/01 08:54:10;;;;;;;;;;;15.40;99.90;;;;;;5096702;28;19974;-65
2023/01/01 08:56:36;;;;;;;;;;;15.40;99.90;;;;;;5096325;28;20359;-65
2023/01/01 08:59:02;;;;;;;;;;;15.30;99.90;;;;;;5096195;28;19925;-65
2023/01/01 09:01:27;;;;;;;;;;;15.40;99.90;;;;;;5094792;28;20322;-64
2023/01/01 09:03:52;;;;;;;;;;;15.30;99.90;;;;;;5099989;27;19951;-64
2023/01/01 09:06:18;;;;;;;;;;;15.30;99.90;;;;;;5100600;27;19945;-65
2023/01/01 09:08:43;;;;;;;;;;;15.30;99.90;;;;;;5100222;28;20011;-63
2023/01/01 09:11:25;;;;;;;;;;;15.40;99.90;;;;;;5099942;28;19922;-64
2023/01/01 09:13:51;;;;;;;;;;;15.40;99.90;;;;;;5097702;27;19952;-64
2023/01/01 09:16:16;;;;;;;;;;;15.40;99.90;;;;;;5093101;28;20446;-64
2023/01/01 09:18:42;;;;;;;;;;;15.40;99.90;;;;;;5088661;28;19915;-65
2023/01/01 09:21:07;;;;;;;;;;;15.40;99.90;;;;;;5090398;28;19920;-66
2023/01/01 09:23:33;;;;;;;;;;;15.40;99.90;;;;;;5088313;27;19959;-65
2023/01/01 09:26:02;;;;;;;;;;;15.50;99.90;;;;;;5090430;27;19924;-65
2023/01/01 09:28:28;;;;;;;;;;;15.50;99.90;;;;;;5090224;27;20314;-65
2023/01/01 09:30:54;;;;;;;;;;;15.60;99.90;;;;;;5089840;27;19916;-66
2023/01/01 09:33:19;;;;;;;;;;;15.60;99.90;;;;;;5086375;28;19986;-67
2023/01/01 09:35:45;;;;;;;;;;;15.60;99.90;;;;;;5089544;28;19970;-67
2023/01/01 09:38:10;;;;;;;;;;;15.60;99.90;;;;;;5096486;27;20341;-66
2023/01/01 09:40:35;;;;;;;;;;;15.70;99.90;;;;;;5085786;28;19986;-66
2023/01/01 09:43:24;;;;;;;;;;;15.80;99.90;;;;;;5087667;27;19956;-66
2023/01/01 09:46:06;;;;;;;;;;;15.90;99.90;;;;;;5094355;27;20424;-65
2023/01/01 09:48:34;;;;;;;;;;;16.00;99.90;;;;;;5099651;28;20388;-66
2023/01/01 09:51:02;;;;;;;;;;;16.00;99.90;;;;;;5083355;28;19912;-67
2023/01/01 09:53:31;;;;;;;;;;;16.00;99.80;;;;;;5090717;27;19916;-66
2023/01/01 09:55:58;;;;;;;;;;;16.00;99.90;;;;;;5097048;27;20308;-66
2023/01/01 09:58:25;;;;;;;;;;;16.00;99.90;;;;;;5097867;27;19916;-66
2023/01/01 10:00:56;;;;;;;;;;;16.00;99.90;;;;;;5096657;27;19919;-66
2023/01/01 10:03:42;;;;;;;;;;;16.00;99.90;;;;;;5087730;28;19915;-66
2023/01/01 10:06:13;;;;;;;;;;;16.00;99.90;;;;;;5089642;27;19931;-67
2023/01/01 10:08:47;;;;;;;;;;;16.00;99.90;;;;;;5089256;27;19916;-66
2023/01/01 10:11:21;;;;;;;;;;;16.00;99.90;;;;;;5088067;27;19920;-67
2023/01/01 10:13:48;;;;;;;;;;;16.00;99.90;;;;;;5088920;27;20427;-66
2023/01/01 10:16:27;;;;;;;;;;;16.10;99.90;;;;;;5091623;28;19923;-67
2023/01/01 10:18:55;;;;;;;;;;;16.10;99.90;;;;;;5098391;27;19969;-66
2023/01/01 10:21:23;;;;;;;;;;;16.00;99.90;;;;;;5099469;28;20497;-66
2023/01/01 10:23:53;;;;;;;;;;;16.00;99.80;;;;;;5098181;27;19922;-67
2023/01/01 10:26:22;;;;;;;;;;;16.00;99.90;;;;;;5096849;27;19923;-68
2023/01/01 10:29:06;;;;;;;;;;;16.00;99.90;;;;;;5099190;28;20435;-66
2023/01/01 10:31:35;;;;;;;;;;;16.00;99.90;;;;;;5096698;28;20247;-65
2023/01/01 10:34:20;;;;;;;;;;;16.00;99.90;;;;;;5098455;27;20000;-66
2023/01/01 10:36:46;;;;;;;;;;;16.10;99.90;;;;;;5097324;27;19918;-65
2023/01/01 10:39:13;;;;;;;;;;;16.20;99.90;;;;;;5098669;27;19915;-66
2023/01/01 10:41:41;;;;;;;;;;;16.00;99.90;;;;;;5097286;27;19931;-65
2023/01/01 10:44:08;;;;;;;;;;;16.00;99.90;;;;;;5096547;28;19951;-66
2023/01/01 10:46:34;;;;;;;;;;;16.00;99.90;;;;;;5094916;27;19916;-66
2023/01/01 10:49:17;;;;;;;;;;;15.90;99.90;;;;;;5099063;27;19961;-67
2023/01/01 10:51:44;;;;;;;;;;;16.00;99.90;;;;;;5092208;27;20430;-66
2023/01/01 10:54:30;;;;;;;;;;;16.00;99.90;;;;;;5098478;28;20297;-66
2023/01/01 10:56:56;;;;;;;;;;;16.00;99.90;;;;;;5096281;27;19960;-67
2023/01/01 10:59:32;;;;;;;;;;;16.00;99.90;;;;;;5098531;28;19923;-66
2023/01/01 11:02:27;;;;;;;;;;;16.00;99.90;;;;;;5098243;27;19946;-67
2023/01/01 11:05:11;;;;;;;;;;;16.00;99.90;;;;;;5078560;28;19915;-66
2023/01/01 11:07:39;;;;;;;;;;;16.00;99.90;;;;;;5087033;28;19972;-66
2023/01/01 11:10:05;;;;;;;;;;;16.00;99.90;;;;;;5090563;27;19966;-65
2023/01/01 11:12:35;;;;;;;;;;;16.10;99.90;;;;;;5083576;28;19973;-67
2023/01/01 11:15:00;;;;;;;;;;;16.10;99.90;;;;;;5080771;27;19916;-66
2023/01/01 11:17:27;;;;;;;;;;;16.00;99.90;;;;;;5083215;27;20277;-67
2023/01/01 11:19:53;;;;;;;;;;;16.00;99.90;;;;;;5084257;27;19959;-66
2023/01/01 11:22:37;;;;;;;;;;;15.90;99.90;;;;;;5082957;27;19962;-65
2023/01/01 11:25:14;;;;;;;;;;;16.00;99.90;;;;;;5085983;28;19920;-67
2023/01/01 11:27:39;;;;;;;;;;;16.00;99.90;;;;;;5085024;28;19916;-67
2023/01/01 11:30:23;;;;;;;;;;;15.90;99.90;;;;;;5085078;28;19969;-67
2023/01/01 11:32:50;;;;;;;;;;;15.90;99.90;;;;;;5085514;27;19920;-66
2023/01/01 11:35:20;;;;;;;;;;;16.00;99.90;;;;;;5082384;28;19922;-67
2023/01/01 11:37:46;;;;;;;;;;;16.00;99.90;;;;;;5087197;28;19927;-69
2023/01/01 11:40:41;;;;;;;;;;;16.00;99.90;;;;;;5086849;28;19920;-67
2023/01/01 11:43:07;;;;;;;;;;;16.20;99.90;;;;;;5078823;28;19963;-65
2023/01/01 11:45:34;;;;;;;;;;;16.30;99.90;;;;;;5084984;28;20009;-69
2023/01/01 11:48:04;;;;;;;;;;;16.30;99.90;;;;;;5084952;28;19915;-68
2023/01/01 11:50:37;;;;;;;;;;;16.30;99.90;;;;;;5085682;27;19912;-69
2023/01/01 11:53:21;;;;;;;;;;;16.20;99.90;;;;;;5085636;28;20497;-71
2023/01/01 11:56:02;;;;;;;;;;;16.20;99.90;;;;;;5080646;28;20008;-68
2023/01/01 11:58:46;;;;;;;;;;;16.10;99.90;;;;;;5081221;28;20366;-66
2023/01/01 12:01:30;;;;;;;;;;;16.10;99.90;;;;;;5082183;28;19920;-66
2023/01/01 12:03:58;;;;;;;;;;;16.10;99.90;;;;;;5082244;27;20437;-67
2023/01/01 12:06:27;;;;;;;;;;;16.10;99.90;;;;;;5084057;28;19915;-68
2023/01/01 12:09:13;;;;;;;;;;;16.10;99.90;;;;;;5084094;28;19911;-67
2023/01/01 12:12:00;;;;;;;;;;;16.10;99.90;;;;;;5084019;28;19998;-67
2023/01/01 12:14:44;;;;;;;;;;;16.10;99.90;;;;;;5090279;27;19950;-70
2023/01/01 12:17:18;;;;;;;;;;;16.10;99.90;;;;;;5080390;27;19918;-71
2023/01/01 12:19:51;;;;;;;;;;;16.20;99.90;;;;;;5084791;28;20005;-72
2023/01/01 12:22:18;;;;;;;;;;;16.20;99.90;;;;;;5079476;27;19966;-68
2023/01/01 12:24:44;;;;;;;;;;;16.30;99.90;;;;;;5077264;28;19927;-69
2023/01/01 12:27:13;;;;;;;;;;;16.30;99.90;;;;;;5083227;28;20373;-69
2023/01/01 12:29:43;;;;;;;;;;;16.30;99.90;;;;;;5084241;27;19938;-67
2023/01/01 12:32:26;;;;;;;;;;;16.20;99.90;;;;;;5083867;28;19943;-68
2023/01/01 12:35:02;;;;;;;;;;;16.30;99.90;;;;;;5087102;28;20336;-68
2023/01/01 12:37:46;;;;;;;;;;;16.20;99.90;;;;;;5082796;28;19916;-68
2023/01/01 12:40:17;;;;;;;;;;;16.20;99.90;;;;;;5082167;28;19971;-68
2023/01/01 12:43:02;;;;;;;;;;;16.20;99.90;;;;;;5091927;28;19999;-69
2023/01/01 12:45:46;;;;;;;;;;;16.10;99.90;;;;;;5096548;28;20337;-71
2023/01/01 12:48:28;;;;;;;;;;;16.20;99.90;;;;;;5094828;28;19923;-70
2023/01/01 12:50:58;;;;;;;;;;;16.10;99.90;;;;;;5086585;28;19926;-70
2023/01/01 12:53:42;;;;;;;;;;;16.00;99.90;;;;;;5086318;28;19915;-70
2023/01/01 12:56:13;;;;;;;;;;;16.00;99.90;;;;;;5085990;28;19923;-69
2023/01/01 12:58:40;;;;;;;;;;;15.90;99.90;;;;;;5082572;28;19923;-70
2023/01/01 13:01:08;;;;;;;;;;;15.90;99.90;;;;;;5095663;28;20245;-70
2023/01/01 13:03:54;;;;;;;;;;;15.90;99.90;;;;;;5097653;28;20361;-68
2023/01/01 13:06:27;;;;;;;;;;;15.90;99.90;;;;;;5087705;28;19981;-70
2023/01/01 13:08:55;;;;;;;;;;;15.80;99.90;;;;;;5080753;28;20007;-69
2023/01/01 13:11:22;;;;;;;;;;;15.90;99.90;;;;;;5077778;28;19939;-69
2023/01/01 13:13:48;;;;;;;;;;;15.90;99.90;;;;;;5081577;28;19922;-69
2023/01/01 13:16:30;;;;;;;;;;;15.90;99.90;;;;;;5077188;28;20006;-71
2023/01/01 13:18:56;;;;;;;;;;;15.90;99.90;;;;;;5084194;28;19916;-69
2023/01/01 13:21:22;;;;;;;;;;;15.90;99.90;;;;;;5084949;28;20399;-71
2023/01/01 13:23:48;;;;;;;;;;;15.90;99.90;;;;;;5086031;28;20410;-71
2023/01/01 13:26:16;;;;;;;;;;;15.80;99.90;;;;;;5089479;28;19971;-71
2023/01/01 13:28:51;;;;;;;;;;;15.90;99.90;;;;;;5081809;28;19942;-70
2023/01/01 13:31:16;;;;;;;;;;;15.90;99.90;;;;;;5088114;28;20814;-70
2023/01/01 13:33:41;;;;;;;;;;;15.90;99.90;;;;;;5088738;28;20014;-71
2023/01/01 13:36:07;;;;;;;;;;;15.80;99.90;;;;;;5095803;28;19912;-70
2023/01/01 13:38:49;;;;;;;;;;;15.80;99.90;;;;;;5094040;28;20010;-70
2023/01/01 13:41:30;;;;;;;;;;;15.70;99.90;;;;;;5095308;28;19950;-70
2023/01/01 13:43:58;;;;;;;;;;;15.70;99.90;;;;;;5093823;28;19916;-70
2023/01/01 13:46:26;;;;;;;;;;;15.70;99.90;;;;;;5078942;28;19953;-70
2023/01/01 13:49:04;;;;;;;;;;;15.80;99.90;;;;;;5081738;28;19924;-69
2023/01/01 13:51:48;;;;;;;;;;;15.70;99.90;;;;;;5089123;27;19959;-69
2023/01/01 13:54:23;;;;;;;;;;;15.70;99.90;;;;;;5084413;27;20263;-69
2023/01/01 13:56:57;;;;;;;;;;;15.60;99.90;;;;;;5089968;28;19998;-72
2023/01/01 13:59:33;;;;;;;;;;;15.60;99.90;;;;;;5087621;27;20004;-72
2023/01/01 14:02:10;;;;;;;;;;;15.60;99.90;;;;;;5082354;28;19959;-69
2023/01/01 14:04:52;;;;;;;;;;;15.60;99.90;;;;;;5084467;28;19912;-72
2023/01/01 14:07:17;;;;;;;;;;;15.50;99.90;;;;;;5086471;27;19953;-70
2023/01/01 14:09:43;;;;;;;;;;;15.50;99.90;;;;;;5081845;27;19912;-71
2023/01/01 14:12:09;;;;;;;;;;;15.50;99.90;;;;;;5080764;27;20319;-71
2023/01/01 14:14:35;;;;;;;;;;;15.50;99.90;;;;;;5082303;27;20082;-71
2023/01/01 14:17:04;;;;;;;;;;;15.40;99.90;;;;;;5092761;27;19920;-71
2023/01/01 14:19:30;;;;;;;;;;;15.40;99.90;;;;;;5082241;27;19916;-70
2023/01/01 14:21:56;;;;;;;;;;;15.30;99.90;;;;;;5081395;28;19916;-69
2023/01/01 14:24:22;;;;;;;;;;;15.30;99.90;;;;;;5085364;28;19916;-69
2023/01/01 14:26:48;;;;;;;;;;;15.30;99.90;;;;;;5096777;28;20352;-70
2023/01/01 14:29:25;;;;;;;;;;;15.20;99.90;;;;;;5099245;27;20230;-70
2023/01/01 14:31:50;;;;;;;;;;;15.20;99.90;;;;;;5094378;27;19916;-70